sensor_id;sensor_type;location;lat;lon;timestamp;P1;durP1;ratioP1;P2;durP2;ratioP2
40433;SDS011;26146;51.114;5.654;2023-03-01T00:03:27;14.27;;;6.70;;
40433;SDS011;26146;51.114;5.654;2023-03-01T00:07:28;15.53;;;7.33;;
40433;SDS011;26146;51.114;5.654;2023-03-01T00:11:29;14.97;;;6.63;;
40433;SDS011;26146;51.114;5.654;2023-03-01T00:15:31;14.43;;;6.67;;
40433;SDS011;26146;51.114;5.654;2023-03-01T00:19:32;16.43;;;7.30;;
40433;SDS011;26146;51.114;5.654;2023-03-01T00:23:34;14.03;;;6.43;;
40433;SDS011;26146;51.114;5.654;2023-03-01T00:27:35;15.07;;;6.50;;
40433;SDS011;26146;51.114;5.654;2023-03-01T00:31:36;14.30;;;6.80;;
40433;SDS011;26146;51.114;5.654;2023-03-01T00:35:37;18.60;;;6.83;;
40433;SDS011;26146;51.114;5.654;2023-03-01T00:39:38;13.53;;;6.07;;
40433;SDS011;26146;51.114;5.654;2023-03-01T00:43:39;13.50;;;6.20;;
40433;SDS011;26146;51.114;5.654;2023-03-01T00:47:41;13.67;;;6.03;;
40433;SDS011;26146;51.114;5.654;2023-03-01T00:51:42;12.53;;;6.10;;
40433;SDS011;26146;51.114;5.654;2023-03-01T00:55:45;14.63;;;6.27;;
40433;SDS011;26146;51.114;5.654;2023-03-01T00:59:46;12.97;;;6.03;;
40433;SDS011;26146;51.114;5.654;2023-03-01T01:03:48;14.10;;;5.80;;
40433;SDS011;26146;51.114;5.654;2023-03-01T01:07:53;11.67;;;5.73;;
40433;SDS011;26146;51.114;5.654;2023-03-01T01:12:02;14.03;;;5.90;;
40433;SDS011;26146;51.114;5.654;2023-03-01T01:16:04;15.60;;;6.20;;
40433;SDS011;26146;51.114;5.654;2023-03-01T01:20:06;12.87;;;6.00;;
40433;SDS011;26146;51.114;5.654;2023-03-01T01:24:08;13.53;;;6.20;;
40433;SDS011;26146;51.114;5.654;2023-03-01T01:28:09;13.20;;;6.33;;
40433;SDS011;26146;51.114;5.654;2023-03-01T01:32:10;12.53;;;6.20;;
40433;SDS011;26146;51.114;5.654;2023-03-01T01:36:13;14.03;;;6.20;;
40433;SDS011;26146;51.114;5.654;2023-03-01T01:40:14;12.33;;;6.07;;
40433;SDS011;26146;51.114;5.654;2023-03-01T01:48:22;16.30;;;6.20;;
40433;SDS011;26146;51.114;5.654;2023-03-01T01:52:29;14.27;;;6.70;;
40433;SDS011;26146;51.114;5.654;2023-03-01T01:56:34;14.20;;;6.57;;
40433;SDS011;26146;51.114;5.654;2023-03-01T02:00:40;14.98;;;5.93;;
40433;SDS011;26146;51.114;5.654;2023-03-01T02:04:43;12.23;;;6.10;;
40433;SDS011;26146;51.114;5.654;2023-03-01T02:08:44;13.27;;;6.07;;
40433;SDS011;26146;51.114;5.654;2023-03-01T02:12:50;14.38;;;6.43;;
40433;SDS011;26146;51.114;5.654;2023-03-01T02:16:52;14.37;;;6.17;;
40433;SDS011;26146;51.114;5.654;2023-03-01T02:29:12;16.40;;;7.17;;
40433;SDS011;26146;51.114;5.654;2023-03-01T02:33:13;15.87;;;6.73;;
40433;SDS011;26146;51.114;5.654;2023-03-01T02:37:15;16.47;;;6.33;;
40433;SDS011;26146;51.114;5.654;2023-03-01T02:41:20;15.57;;;6.80;;
40433;SDS011;26146;51.114;5.654;2023-03-01T02:45:26;14.23;;;6.40;;
40433;SDS011;26146;51.114;5.654;2023-03-01T02:49:28;14.77;;;6.70;;
40433;SDS011;26146;51.114;5.654;2023-03-01T02:53:39;15.43;;;6.70;;
40433;SDS011;26146;51.114;5.654;2023-03-01T02:57:48;13.40;;;6.83;;
40433;SDS011;26146;51.114;5.654;2023-03-01T03:01:52;16.80;;;7.10;;
40433;SDS011;26146;51.114;5.654;2023-03-01T03:05:55;14.43;;;6.80;;
40433;SDS011;26146;51.114;5.654;2023-03-01T03:09:58;15.97;;;7.20;;
40433;SDS011;26146;51.114;5.654;2023-03-01T03:14:00;14.10;;;7.03;;
40433;SDS011;26146;51.114;5.654;2023-03-01T03:18:01;15.00;;;7.00;;
40433;SDS011;26146;51.114;5.654;2023-03-01T03:22:04;15.27;;;7.00;;
40433;SDS011;26146;51.114;5.654;2023-03-01T03:26:09;17.63;;;6.70;;
40433;SDS011;26146;51.114;5.654;2023-03-01T03:30:17;15.23;;;7.20;;
40433;SDS011;26146;51.114;5.654;2023-03-01T03:34:19;15.20;;;6.70;;
40433;SDS011;26146;51.114;5.654;2023-03-01T03:38:23;15.97;;;7.33;;
40433;SDS011;26146;51.114;5.654;2023-03-01T03:42:25;17.77;;;7.33;;
40433;SDS011;26146;51.114;5.654;2023-03-01T03:46:28;15.80;;;7.33;;
40433;SDS011;26146;51.114;5.654;2023-03-01T03:50:29;15.93;;;7.57;;
40433;SDS011;26146;51.114;5.654;2023-03-01T03:54:29;15.43;;;7.00;;
40433;SDS011;26146;51.114;5.654;2023-03-01T03:58:32;14.77;;;7.03;;
40433;SDS011;26146;51.114;5.654;2023-03-01T04:02:34;15.53;;;6.80;;
40433;SDS011;26146;51.114;5.654;2023-03-01T04:06:35;14.90;;;7.30;;
40433;SDS011;26146;51.114;5.654;2023-03-01T04:10:37;15.83;;;7.40;;
40433;SDS011;26146;51.114;5.654;2023-03-01T04:14:40;14.87;;;7.23;;
40433;SDS011;26146;51.114;5.654;2023-03-01T04:18:41;16.33;;;7.50;;
40433;SDS011;26146;51.114;5.654;2023-03-01T04:22:42;14.97;;;7.17;;
40433;SDS011;26146;51.114;5.654;2023-03-01T04:26:43;14.80;;;7.33;;
40433;SDS011;26146;51.114;5.654;2023-03-01T04:30:44;14.40;;;7.00;;
40433;SDS011;26146;51.114;5.654;2023-03-01T04:34:45;15.73;;;7.27;;
40433;SDS011;26146;51.114;5.654;2023-03-01T04:38:46;14.60;;;7.10;;
40433;SDS011;26146;51.114;5.654;2023-03-01T04:42:50;18.23;;;7.77;;
40433;SDS011;26146;51.114;5.654;2023-03-01T04:46:51;18.17;;;7.30;;
40433;SDS011;26146;51.114;5.654;2023-03-01T04:50:51;17.97;;;7.37;;
40433;SDS011;26146;51.114;5.654;2023-03-01T04:54:52;14.43;;;7.07;;
40433;SDS011;26146;51.114;5.654;2023-03-01T04:58:53;16.33;;;7.43;;
40433;SDS011;26146;51.114;5.654;2023-03-01T05:02:55;18.03;;;7.97;;
40433;SDS011;26146;51.114;5.654;2023-03-01T05:06:58;16.20;;;7.60;;
40433;SDS011;26146;51.114;5.654;2023-03-01T05:10:59;15.30;;;7.23;;
40433;SDS011;26146;51.114;5.654;2023-03-01T05:15:00;17.93;;;7.87;;
40433;SDS011;26146;51.114;5.654;2023-03-01T05:19:03;16.07;;;7.57;;
40433;SDS011;26146;51.114;5.654;2023-03-01T05:23:11;15.87;;;7.50;;
40433;SDS011;26146;51.114;5.654;2023-03-01T05:27:12;17.50;;;7.57;;
40433;SDS011;26146;51.114;5.654;2023-03-01T05:31:13;16.83;;;7.83;;
40433;SDS011;26146;51.114;5.654;2023-03-01T05:35:17;16.67;;;7.77;;
40433;SDS011;26146;51.114;5.654;2023-03-01T05:39:22;18.13;;;7.83;;
40433;SDS011;26146;51.114;5.654;2023-03-01T05:43:24;16.67;;;7.80;;
40433;SDS011;26146;51.114;5.654;2023-03-01T05:47:25;17.43;;;7.87;;
40433;SDS011;26146;51.114;5.654;2023-03-01T05:51:26;17.03;;;7.33;;
40433;SDS011;26146;51.114;5.654;2023-03-01T05:55:30;17.40;;;7.80;;
40433;SDS011;26146;51.114;5.654;2023-03-01T05:59:32;15.80;;;7.20;;
40433;SDS011;26146;51.114;5.654;2023-03-01T06:03:33;17.87;;;7.43;;
40433;SDS011;26146;51.114;5.654;2023-03-01T06:07:42;15.83;;;7.37;;
40433;SDS011;26146;51.114;5.654;2023-03-01T06:11:44;19.27;;;8.00;;
40433;SDS011;26146;51.114;5.654;2023-03-01T06:15:48;15.77;;;7.33;;
40433;SDS011;26146;51.114;5.654;2023-03-01T06:19:49;17.90;;;7.90;;
40433;SDS011;26146;51.114;5.654;2023-03-01T06:23:50;15.90;;;7.43;;
40433;SDS011;26146;51.114;5.654;2023-03-01T06:27:52;19.60;;;8.33;;
40433;SDS011;26146;51.114;5.654;2023-03-01T06:31:53;19.17;;;7.83;;
40433;SDS011;26146;51.114;5.654;2023-03-01T06:35:54;18.53;;;8.17;;
40433;SDS011;26146;51.114;5.654;2023-03-01T06:39:56;17.23;;;7.87;;
40433;SDS011;26146;51.114;5.654;2023-03-01T06:43:57;18.97;;;7.90;;
40433;SDS011;26146;51.114;5.654;2023-03-01T06:48:05;19.60;;;8.47;;
40433;SDS011;26146;51.114;5.654;2023-03-01T06:52:07;17.47;;;8.00;;
40433;SDS011;26146;51.114;5.654;2023-03-01T06:56:08;19.90;;;8.10;;
40433;SDS011;26146;51.114;5.654;2023-03-01T07:00:09;21.13;;;8.60;;
40433;SDS011;26146;51.114;5.654;2023-03-01T07:04:12;20.80;;;8.37;;
40433;SDS011;26146;51.114;5.654;2023-03-01T07:08:13;18.97;;;8.73;;
40433;SDS011;26146;51.114;5.654;2023-03-01T07:12:14;18.47;;;8.60;;
40433;SDS011;26146;51.114;5.654;2023-03-01T07:16:17;17.77;;;8.30;;
40433;SDS011;26146;51.114;5.654;2023-03-01T07:20:20;13.80;;;6.50;;
40433;SDS011;26146;51.114;5.654;2023-03-01T07:24:24;18.70;;;7.87;;
40433;SDS011;26146;51.114;5.654;2023-03-01T07:28:25;19.47;;;8.60;;
40433;SDS011;26146;51.114;5.654;2023-03-01T07:32:27;20.37;;;8.63;;
40433;SDS011;26146;51.114;5.654;2023-03-01T07:36:28;19.10;;;8.50;;
40433;SDS011;26146;51.114;5.654;2023-03-01T07:40:29;16.83;;;7.93;;
40433;SDS011;26146;51.114;5.654;2023-03-01T07:44:30;17.33;;;8.03;;
40433;SDS011;26146;51.114;5.654;2023-03-01T07:48:31;19.53;;;8.60;;
40433;SDS011;26146;51.114;5.654;2023-03-01T07:52:33;17.40;;;8.20;;
40433;SDS011;26146;51.114;5.654;2023-03-01T07:56:34;18.80;;;8.43;;
40433;SDS011;26146;51.114;5.654;2023-03-01T08:00:35;19.37;;;8.13;;
40433;SDS011;26146;51.114;5.654;2023-03-01T08:04:36;21.33;;;8.73;;
40433;SDS011;26146;51.114;5.654;2023-03-01T08:08:37;19.13;;;8.90;;
40433;SDS011;26146;51.114;5.654;2023-03-01T08:12:39;20.17;;;8.53;;
40433;SDS011;26146;51.114;5.654;2023-03-01T08:16:40;19.40;;;8.63;;
40433;SDS011;26146;51.114;5.654;2023-03-01T08:20:43;18.77;;;8.47;;
40433;SDS011;26146;51.114;5.654;2023-03-01T08:24:44;19.83;;;8.00;;
40433;SDS011;26146;51.114;5.654;2023-03-01T08:28:45;19.63;;;8.67;;
40433;SDS011;26146;51.114;5.654;2023-03-01T08:32:47;17.10;;;8.07;;
40433;SDS011;26146;51.114;5.654;2023-03-01T08:36:50;18.57;;;8.63;;
40433;SDS011;26146;51.114;5.654;2023-03-01T08:40:54;18.53;;;8.53;;
40433;SDS011;26146;51.114;5.654;2023-03-01T08:44:55;19.23;;;8.10;;
40433;SDS011;26146;51.114;5.654;2023-03-01T08:48:57;20.27;;;8.87;;
40433;SDS011;26146;51.114;5.654;2023-03-01T08:52:58;18.60;;;8.13;;
40433;SDS011;26146;51.114;5.654;2023-03-01T08:57:01;17.47;;;8.17;;
40433;SDS011;26146;51.114;5.654;2023-03-01T09:01:08;18.15;;;8.98;;
40433;SDS011;26146;51.114;5.654;2023-03-01T09:09:12;16.70;;;8.13;;
40433;SDS011;26146;51.114;5.654;2023-03-01T09:13:16;18.65;;;8.32;;
40433;SDS011;26146;51.114;5.654;2023-03-01T09:17:17;17.63;;;8.53;;
40433;SDS011;26146;51.114;5.654;2023-03-01T09:21:22;20.33;;;8.80;;
40433;SDS011;26146;51.114;5.654;2023-03-01T09:25:24;21.93;;;8.90;;
40433;SDS011;26146;51.114;5.654;2023-03-01T09:29:25;16.80;;;8.20;;
40433;SDS011;26146;51.114;5.654;2023-03-01T09:33:28;18.87;;;8.63;;
40433;SDS011;26146;51.114;5.654;2023-03-01T09:37:34;19.53;;;8.67;;
40433;SDS011;26146;51.114;5.654;2023-03-01T09:41:57;17.90;;;8.00;;
40433;SDS011;26146;51.114;5.654;2023-03-01T09:46:05;17.23;;;8.17;;
40433;SDS011;26146;51.114;5.654;2023-03-01T09:50:15;20.63;;;8.27;;
40433;SDS011;26146;51.114;5.654;2023-03-01T09:54:20;17.17;;;7.97;;
40433;SDS011;26146;51.114;5.654;2023-03-01T09:58:30;18.03;;;8.57;;
40433;SDS011;26146;51.114;5.654;2023-03-01T10:02:39;19.27;;;8.67;;
40433;SDS011;26146;51.114;5.654;2023-03-01T10:06:44;18.37;;;8.93;;
40433;SDS011;26146;51.114;5.654;2023-03-01T10:11:22;18.60;;;8.77;;
40433;SDS011;26146;51.114;5.654;2023-03-01T10:15:34;18.57;;;8.30;;
40433;SDS011;26146;51.114;5.654;2023-03-01T10:19:43;17.37;;;7.77;;
40433;SDS011;26146;51.114;5.654;2023-03-01T10:23:46;16.03;;;7.87;;
40433;SDS011;26146;51.114;5.654;2023-03-01T10:27:53;17.90;;;8.30;;
40433;SDS011;26146;51.114;5.654;2023-03-01T10:32:00;18.27;;;8.30;;
40433;SDS011;26146;51.114;5.654;2023-03-01T10:36:03;17.10;;;8.43;;
40433;SDS011;26146;51.114;5.654;2023-03-01T10:40:05;20.03;;;8.77;;
40433;SDS011;26146;51.114;5.654;2023-03-01T10:44:09;17.57;;;8.17;;
40433;SDS011;26146;51.114;5.654;2023-03-01T10:57:34;18.23;;;8.57;;
40433;SDS011;26146;51.114;5.654;2023-03-01T11:01:37;19.67;;;8.23;;
40433;SDS011;26146;51.114;5.654;2023-03-01T11:09:51;19.07;;;8.23;;
40433;SDS011;26146;51.114;5.654;2023-03-01T11:13:54;17.87;;;8.20;;
40433;SDS011;26146;51.114;5.654;2023-03-01T11:17:55;17.07;;;7.93;;
40433;SDS011;26146;51.114;5.654;2023-03-01T11:22:06;21.60;;;8.20;;
40433;SDS011;26146;51.114;5.654;2023-03-01T11:26:20;16.43;;;8.53;;
40433;SDS011;26146;51.114;5.654;2023-03-01T11:30:27;18.30;;;7.80;;
40433;SDS011;26146;51.114;5.654;2023-03-01T11:34:36;18.30;;;8.00;;
40433;SDS011;26146;51.114;5.654;2023-03-01T11:38:41;17.07;;;7.70;;
40433;SDS011;26146;51.114;5.654;2023-03-01T11:51:18;18.47;;;8.07;;
40433;SDS011;26146;51.114;5.654;2023-03-01T12:08:54;16.70;;;8.00;;
40433;SDS011;26146;51.114;5.654;2023-03-01T12:13:16;15.97;;;7.60;;
40433;SDS011;26146;51.114;5.654;2023-03-01T12:26:10;18.17;;;7.77;;
40433;SDS011;26146;51.114;5.654;2023-03-01T12:51:35;17.00;;;8.43;;
40433;SDS011;26146;51.114;5.654;2023-03-01T12:55:38;16.70;;;8.03;;
40433;SDS011;26146;51.114;5.654;2023-03-01T12:59:46;16.27;;;7.53;;
40433;SDS011;26146;51.114;5.654;2023-03-01T13:16:42;13.70;;;7.07;;
40433;SDS011;26146;51.114;5.654;2023-03-01T13:20:46;16.77;;;7.50;;
40433;SDS011;26146;51.114;5.654;2023-03-01T13:24:49;15.23;;;7.27;;
40433;SDS011;26146;51.114;5.654;2023-03-01T13:29:02;16.20;;;7.50;;
40433;SDS011;26146;51.114;5.654;2023-03-01T13:37:27;17.67;;;7.33;;
40433;SDS011;26146;51.114;5.654;2023-03-01T13:45:42;15.87;;;6.70;;
40433;SDS011;26146;51.114;5.654;2023-03-01T13:49:47;14.70;;;6.77;;
40433;SDS011;26146;51.114;5.654;2023-03-01T13:53:52;14.17;;;6.50;;
40433;SDS011;26146;51.114;5.654;2023-03-01T13:57:59;16.73;;;6.90;;
40433;SDS011;26146;51.114;5.654;2023-03-01T14:02:01;14.30;;;6.97;;
40433;SDS011;26146;51.114;5.654;2023-03-01T14:06:04;14.83;;;6.87;;
40433;SDS011;26146;51.114;5.654;2023-03-01T14:10:11;14.53;;;6.40;;
40433;SDS011;26146;51.114;5.654;2023-03-01T14:23:01;12.80;;;5.30;;
40433;SDS011;26146;51.114;5.654;2023-03-01T14:27:12;11.97;;;5.67;;
40433;SDS011;26146;51.114;5.654;2023-03-01T14:35:38;11.43;;;4.93;;
40433;SDS011;26146;51.114;5.654;2023-03-01T14:39:41;11.20;;;5.10;;
40433;SDS011;26146;51.114;5.654;2023-03-01T14:43:46;13.83;;;5.67;;
40433;SDS011;26146;51.114;5.654;2023-03-01T14:47:53;11.80;;;5.20;;
40433;SDS011;26146;51.114;5.654;2023-03-01T14:56:04;11.53;;;4.90;;
40433;SDS011;26146;51.114;5.654;2023-03-01T15:00:16;11.00;;;5.00;;
40433;SDS011;26146;51.114;5.654;2023-03-01T15:04:22;12.10;;;5.03;;
40433;SDS011;26146;51.114;5.654;2023-03-01T15:08:25;11.57;;;4.90;;
40433;SDS011;26146;51.114;5.654;2023-03-01T15:12:37;11.27;;;4.90;;
40433;SDS011;26146;51.114;5.654;2023-03-01T15:16:39;9.80;;;4.40;;
40433;SDS011;26146;51.114;5.654;2023-03-01T15:20:43;14.63;;;4.90;;
40433;SDS011;26146;51.114;5.654;2023-03-01T15:24:47;10.30;;;4.73;;
40433;SDS011;26146;51.114;5.654;2023-03-01T15:28:50;11.70;;;4.60;;
40433;SDS011;26146;51.114;5.654;2023-03-01T15:37:40;11.70;;;4.50;;
40433;SDS011;26146;51.114;5.654;2023-03-01T15:41:47;9.60;;;4.47;;
40433;SDS011;26146;51.114;5.654;2023-03-01T15:45:55;11.00;;;4.90;;
40433;SDS011;26146;51.114;5.654;2023-03-01T15:49:58;11.10;;;5.10;;
40433;SDS011;26146;51.114;5.654;2023-03-01T15:54:20;10.67;;;4.57;;
40433;SDS011;26146;51.114;5.654;2023-03-01T15:58:26;12.10;;;4.83;;
40433;SDS011;26146;51.114;5.654;2023-03-01T16:02:27;10.73;;;4.70;;
40433;SDS011;26146;51.114;5.654;2023-03-01T16:06:28;11.97;;;5.00;;
40433;SDS011;26146;51.114;5.654;2023-03-01T16:10:29;14.00;;;4.80;;
40433;SDS011;26146;51.114;5.654;2023-03-01T16:14:34;11.80;;;4.80;;
40433;SDS011;26146;51.114;5.654;2023-03-01T16:18:35;11.73;;;4.87;;
40433;SDS011;26146;51.114;5.654;2023-03-01T16:22:35;11.20;;;5.03;;
40433;SDS011;26146;51.114;5.654;2023-03-01T16:26:36;12.40;;;5.47;;
40433;SDS011;26146;51.114;5.654;2023-03-01T16:30:40;11.53;;;5.37;;
40433;SDS011;26146;51.114;5.654;2023-03-01T16:38:50;14.83;;;5.60;;
40433;SDS011;26146;51.114;5.654;2023-03-01T16:42:52;16.93;;;5.37;;
40433;SDS011;26146;51.114;5.654;2023-03-01T16:46:55;12.40;;;5.60;;
40433;SDS011;26146;51.114;5.654;2023-03-01T16:51:00;12.17;;;5.50;;
40433;SDS011;26146;51.114;5.654;2023-03-01T16:55:02;13.07;;;5.72;;
40433;SDS011;26146;51.114;5.654;2023-03-01T16:59:11;15.67;;;5.77;;
40433;SDS011;26146;51.114;5.654;2023-03-01T17:03:54;14.83;;;6.77;;
40433;SDS011;26146;51.114;5.654;2023-03-01T17:07:55;15.23;;;6.53;;
40433;SDS011;26146;51.114;5.654;2023-03-01T17:11:57;15.93;;;6.70;;
40433;SDS011;26146;51.114;5.654;2023-03-01T17:15:58;14.23;;;5.70;;
40433;SDS011;26146;51.114;5.654;2023-03-01T17:19:59;16.23;;;5.80;;
40433;SDS011;26146;51.114;5.654;2023-03-01T17:24:00;13.60;;;6.13;;
40433;SDS011;26146;51.114;5.654;2023-03-01T17:28:03;14.93;;;6.13;;
40433;SDS011;26146;51.114;5.654;2023-03-01T17:32:05;14.73;;;6.20;;
40433;SDS011;26146;51.114;5.654;2023-03-01T17:36:06;15.40;;;6.00;;
40433;SDS011;26146;51.114;5.654;2023-03-01T17:40:09;14.70;;;6.03;;
40433;SDS011;26146;51.114;5.654;2023-03-01T17:44:11;16.47;;;7.57;;
40433;SDS011;26146;51.114;5.654;2023-03-01T17:48:12;14.27;;;6.63;;
40433;SDS011;26146;51.114;5.654;2023-03-01T17:52:14;16.93;;;8.03;;
40433;SDS011;26146;51.114;5.654;2023-03-01T17:56:15;17.40;;;7.37;;
40433;SDS011;26146;51.114;5.654;2023-03-01T18:00:16;14.50;;;6.23;;
40433;SDS011;26146;51.114;5.654;2023-03-01T18:04:18;16.30;;;6.83;;
40433;SDS011;26146;51.114;5.654;2023-03-01T18:12:44;15.63;;;6.80;;
40433;SDS011;26146;51.114;5.654;2023-03-01T18:16:45;16.33;;;7.53;;
40433;SDS011;26146;51.114;5.654;2023-03-01T18:20:53;19.20;;;7.70;;
40433;SDS011;26146;51.114;5.654;2023-03-01T18:24:58;17.57;;;7.77;;
40433;SDS011;26146;51.114;5.654;2023-03-01T18:28:59;18.30;;;7.90;;
40433;SDS011;26146;51.114;5.654;2023-03-01T18:33:02;18.40;;;7.90;;
40433;SDS011;26146;51.114;5.654;2023-03-01T18:37:03;17.60;;;7.97;;
40433;SDS011;26146;51.114;5.654;2023-03-01T18:41:04;18.77;;;8.00;;
40433;SDS011;26146;51.114;5.654;2023-03-01T18:45:05;19.27;;;8.07;;
40433;SDS011;26146;51.114;5.654;2023-03-01T18:49:07;18.43;;;8.03;;
40433;SDS011;26146;51.114;5.654;2023-03-01T18:53:09;18.73;;;8.13;;
40433;SDS011;26146;51.114;5.654;2023-03-01T18:57:10;18.20;;;7.97;;
40433;SDS011;26146;51.114;5.654;2023-03-01T19:01:19;21.40;;;8.80;;
40433;SDS011;26146;51.114;5.654;2023-03-01T19:05:24;18.17;;;7.80;;
40433;SDS011;26146;51.114;5.654;2023-03-01T19:09:26;17.03;;;7.37;;
40433;SDS011;26146;51.114;5.654;2023-03-01T19:13:28;17.20;;;7.60;;
40433;SDS011;26146;51.114;5.654;2023-03-01T19:17:29;15.87;;;6.70;;
40433;SDS011;26146;51.114;5.654;2023-03-01T19:21:33;15.63;;;7.00;;
40433;SDS011;26146;51.114;5.654;2023-03-01T19:25:34;14.53;;;6.67;;
40433;SDS011;26146;51.114;5.654;2023-03-01T19:29:38;16.30;;;7.20;;
40433;SDS011;26146;51.114;5.654;2023-03-01T19:33:39;18.87;;;7.93;;
40433;SDS011;26146;51.114;5.654;2023-03-01T19:37:41;19.17;;;8.47;;
40433;SDS011;26146;51.114;5.654;2023-03-01T19:41:42;19.73;;;7.63;;
40433;SDS011;26146;51.114;5.654;2023-03-01T19:45:43;18.30;;;7.63;;
40433;SDS011;26146;51.114;5.654;2023-03-01T19:49:46;17.67;;;7.80;;
40433;SDS011;26146;51.114;5.654;2023-03-01T19:53:47;17.23;;;7.33;;
40433;SDS011;26146;51.114;5.654;2023-03-01T19:57:50;15.63;;;6.93;;
40433;SDS011;26146;51.114;5.654;2023-03-01T20:01:51;17.70;;;7.33;;
40433;SDS011;26146;51.114;5.654;2023-03-01T20:05:55;19.63;;;7.13;;
40433;SDS011;26146;51.114;5.654;2023-03-01T20:09:57;17.47;;;6.63;;
40433;SDS011;26146;51.114;5.654;2023-03-01T20:13:58;19.30;;;7.90;;
40433;SDS011;26146;51.114;5.654;2023-03-01T20:17:59;19.57;;;8.00;;
40433;SDS011;26146;51.114;5.654;2023-03-01T20:22:00;16.57;;;6.77;;
40433;SDS011;26146;51.114;5.654;2023-03-01T20:26:03;14.37;;;6.43;;
40433;SDS011;26146;51.114;5.654;2023-03-01T20:30:07;14.50;;;6.37;;
40433;SDS011;26146;51.114;5.654;2023-03-01T20:34:08;16.90;;;7.00;;
40433;SDS011;26146;51.114;5.654;2023-03-01T20:38:09;14.93;;;6.87;;
40433;SDS011;26146;51.114;5.654;2023-03-01T20:42:10;16.90;;;7.37;;
40433;SDS011;26146;51.114;5.654;2023-03-01T20:46:11;18.27;;;7.50;;
40433;SDS011;26146;51.114;5.654;2023-03-01T20:50:14;19.03;;;7.87;;
40433;SDS011;26146;51.114;5.654;2023-03-01T20:54:16;15.43;;;7.20;;
40433;SDS011;26146;51.114;5.654;2023-03-01T20:58:17;16.77;;;7.90;;
40433;SDS011;26146;51.114;5.654;2023-03-01T21:02:18;18.57;;;8.07;;
40433;SDS011;26146;51.114;5.654;2023-03-01T21:06:19;18.93;;;8.07;;
40433;SDS011;26146;51.114;5.654;2023-03-01T21:10:22;17.27;;;7.23;;
40433;SDS011;26146;51.114;5.654;2023-03-01T21:14:25;15.50;;;7.33;;
40433;SDS011;26146;51.114;5.654;2023-03-01T21:18:27;19.27;;;7.87;;
40433;SDS011;26146;51.114;5.654;2023-03-01T21:22:31;15.13;;;6.70;;
40433;SDS011;26146;51.114;5.654;2023-03-01T21:26:34;16.30;;;7.57;;
40433;SDS011;26146;51.114;5.654;2023-03-01T21:30:35;16.17;;;6.40;;
40433;SDS011;26146;51.114;5.654;2023-03-01T21:34:37;15.30;;;6.73;;
40433;SDS011;26146;51.114;5.654;2023-03-01T21:38:42;15.07;;;6.30;;
40433;SDS011;26146;51.114;5.654;2023-03-01T21:42:45;16.90;;;6.93;;
40433;SDS011;26146;51.114;5.654;2023-03-01T21:46:48;18.43;;;7.40;;
40433;SDS011;26146;51.114;5.654;2023-03-01T21:50:53;21.10;;;8.43;;
40433;SDS011;26146;51.114;5.654;2023-03-01T21:54:57;18.53;;;7.83;;
40433;SDS011;26146;51.114;5.654;2023-03-01T21:59:01;16.07;;;6.70;;
40433;SDS011;26146;51.114;5.654;2023-03-01T22:03:02;18.10;;;6.53;;
40433;SDS011;26146;51.114;5.654;2023-03-01T22:07:03;16.93;;;6.70;;
40433;SDS011;26146;51.114;5.654;2023-03-01T22:11:07;16.93;;;6.70;;
40433;SDS011;26146;51.114;5.654;2023-03-01T22:15:08;15.93;;;6.80;;
40433;SDS011;26146;51.114;5.654;2023-03-01T22:19:09;16.13;;;6.60;;
40433;SDS011;26146;51.114;5.654;2023-03-01T22:23:11;15.60;;;6.23;;
40433;SDS011;26146;51.114;5.654;2023-03-01T22:27:12;14.33;;;5.50;;
40433;SDS011;26146;51.114;5.654;2023-03-01T22:31:13;16.60;;;6.00;;
40433;SDS011;26146;51.114;5.654;2023-03-01T22:35:14;15.80;;;6.30;;
40433;SDS011;26146;51.114;5.654;2023-03-01T22:39:16;15.00;;;6.10;;
40433;SDS011;26146;51.114;5.654;2023-03-01T22:43:21;19.00;;;5.93;;
40433;SDS011;26146;51.114;5.654;2023-03-01T22:47:22;14.20;;;5.87;;
40433;SDS011;26146;51.114;5.654;2023-03-01T22:51:28;14.80;;;6.13;;
40433;SDS011;26146;51.114;5.654;2023-03-01T22:55:33;14.27;;;5.90;;
40433;SDS011;26146;51.114;5.654;2023-03-01T22:59:34;15.30;;;5.63;;
40433;SDS011;26146;51.114;5.654;2023-03-01T23:03:35;15.03;;;6.57;;
40433;SDS011;26146;51.114;5.654;2023-03-01T23:07:36;13.83;;;5.70;;
40433;SDS011;26146;51.114;5.654;2023-03-01T23:11:37;15.50;;;6.63;;
40433;SDS011;26146;51.114;5.654;2023-03-01T23:15:38;16.17;;;6.57;;
40433;SDS011;26146;51.114;5.654;2023-03-01T23:19:43;29.65;;;9.68;;
40433;SDS011;26146;51.114;5.654;2023-03-01T23:23:45;18.63;;;7.60;;
40433;SDS011;26146;51.114;5.654;2023-03-01T23:27:46;17.60;;;6.43;;
40433;SDS011;26146;51.114;5.654;2023-03-01T23:31:47;15.20;;;6.20;;
40433;SDS011;26146;51.114;5.654;2023-03-01T23:35:48;17.87;;;6.03;;
40433;SDS011;26146;51.114;5.654;2023-03-01T23:39:49;15.23;;;6.27;;
40433;SDS011;26146;51.114;5.654;2023-03-01T23:43:51;15.53;;;6.00;;
40433;SDS011;26146;51.114;5.654;2023-03-01T23:47:54;14.80;;;5.83;;
40433;SDS011;26146;51.114;5.654;2023-03-01T23:51:55;17.57;;;6.20;;
40433;SDS011;26146;51.114;5.654;2023-03-01T23:55:56;15.63;;;6.00;;
40433;SDS011;26146;51.114;5.654;2023-03-01T23:59:57;15.40;;;6.00;;
